sensor_id;sensor_type;location;lat;lon;timestamp;pressure;altitude;pressure_sealevel;temperature;humidity
32875;BME280;40468;42.128;24.750;2022-12-29T00:00:20;100885.09;;;5.60;74.58
32875;BME280;40468;42.128;24.750;2022-12-29T00:01:52;100892.00;;;5.58;74.66
32875;BME280;40468;42.128;24.750;2022-12-29T00:03:24;100893.72;;;5.59;74.71
32875;BME280;40468;42.128;24.750;2022-12-29T00:04:56;100896.31;;;5.59;74.74
32875;BME280;40468;42.128;24.750;2022-12-29T00:06:28;100893.72;;;5.59;74.64
32875;BME280;40468;42.128;24.750;2022-12-29T00:07:59;100899.78;;;5.57;74.64
32875;BME280;40468;42.128;24.750;2022-12-29T00:09:31;100888.59;;;5.56;74.71
32875;BME280;40468;42.128;24.750;2022-12-29T00:11:03;100892.84;;;5.60;74.73
32875;BME280;40468;42.128;24.750;2022-12-29T00:12:35;100898.88;;;5.61;74.72
32875;BME280;40468;42.128;24.750;2022-12-29T00:14:23;100904.91;;;5.61;74.77
32875;BME280;40468;42.128;24.750;2022-12-29T00:16:12;100895.44;;;5.60;74.65
32875;BME280;40468;42.128;24.750;2022-12-29T00:17:44;100898.00;;;5.59;74.76
32875;BME280;40468;42.128;24.750;2022-12-29T00:19:17;100908.31;;;5.62;74.65
32875;BME280;40468;42.128;24.750;2022-12-29T00:21:07;100831.19;;;5.11;74.66
32875;BME280;40468;42.128;24.750;2022-12-29T00:22:59;100917.78;;;5.64;74.58
32875;BME280;40468;42.128;24.750;2022-12-29T00:24:48;100915.22;;;5.64;74.58
32875;BME280;40468;42.128;24.750;2022-12-29T00:26:38;100917.78;;;5.66;74.59
32875;BME280;40468;42.128;24.750;2022-12-29T00:28:39;100920.38;;;5.66;74.63
32875;BME280;40468;42.128;24.750;2022-12-29T00:30:28;100912.63;;;5.64;74.66
32875;BME280;40468;42.128;24.750;2022-12-29T00:32:17;100916.91;;;5.72;74.57
32875;BME280;40468;42.128;24.750;2022-12-29T00:34:09;100914.34;;;5.68;74.66
32875;BME280;40468;42.128;24.750;2022-12-29T00:36:02;100922.06;;;5.72;74.75
32875;BME280;40468;42.128;24.750;2022-12-29T00:37:36;100924.66;;;5.68;74.83
32875;BME280;40468;42.128;24.750;2022-12-29T00:39:26;100928.94;;;5.74;74.92
32875;BME280;40468;42.128;24.750;2022-12-29T00:41:16;100937.53;;;5.78;74.72
32875;BME280;40468;42.128;24.750;2022-12-29T00:43:05;100929.78;;;5.76;74.81
32875;BME280;40468;42.128;24.750;2022-12-29T00:44:54;100931.47;;;5.79;74.68
32875;BME280;40468;42.128;24.750;2022-12-29T00:46:26;100938.34;;;5.83;74.75
32875;BME280;40468;42.128;24.750;2022-12-29T00:47:58;100938.31;;;5.89;74.72
32875;BME280;40468;42.128;24.750;2022-12-29T00:49:30;100880.84;;;5.50;74.80
32875;BME280;40468;42.128;24.750;2022-12-29T00:51:03;100933.97;;;5.91;74.68
32875;BME280;40468;42.128;24.750;2022-12-29T00:52:33;100935.69;;;5.90;74.84
32875;BME280;40468;42.128;24.750;2022-12-29T00:54:05;100887.72;;;5.53;74.75
32875;BME280;40468;42.128;24.750;2022-12-29T00:55:37;100947.75;;;5.91;74.98
32875;BME280;40468;42.128;24.750;2022-12-29T00:57:09;100944.31;;;5.91;75.18
32875;BME280;40468;42.128;24.750;2022-12-29T00:58:42;100950.34;;;5.90;75.18
32875;BME280;40468;42.128;24.750;2022-12-29T01:00:14;100942.59;;;5.90;75.14
32875;BME280;40468;42.128;24.750;2022-12-29T01:01:47;100944.31;;;5.91;75.28
32875;BME280;40468;42.128;24.750;2022-12-29T01:03:19;100934.00;;;5.88;75.36
32875;BME280;40468;42.128;24.750;2022-12-29T01:04:51;100937.44;;;5.90;75.28
32875;BME280;40468;42.128;24.750;2022-12-29T01:06:24;100943.44;;;5.90;75.39
32875;BME280;40468;42.128;24.750;2022-12-29T01:07:55;100938.28;;;5.90;75.41
32875;BME280;40468;42.128;24.750;2022-12-29T01:09:26;100790.75;;;5.06;75.32
32875;BME280;40468;42.128;24.750;2022-12-29T01:11:16;100943.47;;;5.93;75.29
32875;BME280;40468;42.128;24.750;2022-12-29T01:12:47;100936.56;;;5.94;75.35
32875;BME280;40468;42.128;24.750;2022-12-29T01:14:20;100938.28;;;5.93;75.26
32875;BME280;40468;42.128;24.750;2022-12-29T01:15:52;100934.84;;;5.90;75.40
32875;BME280;40468;42.128;24.750;2022-12-29T01:17:25;100909.09;;;5.78;75.27
32875;BME280;40468;42.128;24.750;2022-12-29T01:18:56;100935.72;;;5.93;75.25
32875;BME280;40468;42.128;24.750;2022-12-29T01:20:27;100919.34;;;5.87;75.36
32875;BME280;40468;42.128;24.750;2022-12-29T01:22:00;100937.41;;;5.91;75.36
32875;BME280;40468;42.128;24.750;2022-12-29T01:23:32;100930.56;;;5.89;75.28
32875;BME280;40468;42.128;24.750;2022-12-29T01:25:05;100926.22;;;5.88;75.35
32875;BME280;40468;42.128;24.750;2022-12-29T01:26:37;100935.69;;;5.90;75.34
32875;BME280;40468;42.128;24.750;2022-12-29T01:28:09;100933.97;;;5.91;75.31
32875;BME280;40468;42.128;24.750;2022-12-29T01:29:41;100926.22;;;5.91;75.25
32875;BME280;40468;42.128;24.750;2022-12-29T01:31:13;100929.66;;;5.88;75.19
32875;BME280;40468;42.128;24.750;2022-12-29T01:32:45;100925.38;;;5.87;75.24
32875;BME280;40468;42.128;24.750;2022-12-29T01:34:17;100923.63;;;5.91;75.16
32875;BME280;40468;42.128;24.750;2022-12-29T01:35:48;100930.53;;;5.90;75.15
32875;BME280;40468;42.128;24.750;2022-12-29T01:37:21;100921.94;;;5.95;75.30
32875;BME280;40468;42.128;24.750;2022-12-29T01:38:53;100926.19;;;5.97;74.98
32875;BME280;40468;42.128;24.750;2022-12-29T01:40:24;100919.31;;;5.96;75.00
32875;BME280;40468;42.128;24.750;2022-12-29T01:41:56;100918.41;;;6.00;74.94
32875;BME280;40468;42.128;24.750;2022-12-29T01:43:39;100921.84;;;6.04;74.76
32875;BME280;40468;42.128;24.750;2022-12-29T01:45:13;100920.09;;;6.07;74.78
32875;BME280;40468;42.128;24.750;2022-12-29T01:46:47;100916.63;;;6.10;74.62
32875;BME280;40468;42.128;24.750;2022-12-29T01:48:20;100911.41;;;6.11;74.44
32875;BME280;40468;42.128;24.750;2022-12-29T01:49:52;100913.94;;;6.19;74.34
32875;BME280;40468;42.128;24.750;2022-12-29T01:51:26;100898.47;;;6.16;74.39
32875;BME280;40468;42.128;24.750;2022-12-29T01:53:04;100900.09;;;6.23;74.21
32875;BME280;40468;42.128;24.750;2022-12-29T01:54:39;100893.19;;;6.24;74.23
32875;BME280;40468;42.128;24.750;2022-12-29T01:56:17;100900.91;;;6.28;74.21
32875;BME280;40468;42.128;24.750;2022-12-29T01:57:53;100898.31;;;6.30;73.97
32875;BME280;40468;42.128;24.750;2022-12-29T01:59:30;100889.75;;;6.25;73.96
32875;BME280;40468;42.128;24.750;2022-12-29T02:01:02;100888.84;;;6.29;74.11
32875;BME280;40468;42.128;24.750;2022-12-29T02:02:35;100888.81;;;6.32;73.86
32875;BME280;40468;42.128;24.750;2022-12-29T02:04:08;100886.19;;;6.35;73.90
32875;BME280;40468;42.128;24.750;2022-12-29T02:05:47;100880.97;;;6.38;73.66
32875;BME280;40468;42.128;24.750;2022-12-29T02:07:21;100876.63;;;6.42;73.65
32875;BME280;40468;42.128;24.750;2022-12-29T02:08:56;100874.00;;;6.45;73.61
32875;BME280;40468;42.128;24.750;2022-12-29T02:10:31;100857.72;;;6.35;73.51
32875;BME280;40468;42.128;24.750;2022-12-29T02:12:04;100864.50;;;6.47;73.37
32875;BME280;40468;42.128;24.750;2022-12-29T02:13:37;100871.34;;;6.52;73.35
32875;BME280;40468;42.128;24.750;2022-12-29T02:15:09;100861.84;;;6.54;73.21
32875;BME280;40468;42.128;24.750;2022-12-29T02:16:52;100866.16;;;6.54;73.06
32875;BME280;40468;42.128;24.750;2022-12-29T02:18:35;100865.28;;;6.53;73.20
32875;BME280;40468;42.128;24.750;2022-12-29T02:22:34;100854.06;;;6.53;73.16
32875;BME280;40468;42.128;24.750;2022-12-29T02:24:51;100852.31;;;6.56;72.93
32875;BME280;40468;42.128;24.750;2022-12-29T02:26:49;100850.63;;;6.52;72.95
32875;BME280;40468;42.128;24.750;2022-12-29T02:28:47;100854.03;;;6.57;72.83
32875;BME280;40468;42.128;24.750;2022-12-29T02:32:29;100847.94;;;6.63;72.71
32875;BME280;40468;42.128;24.750;2022-12-29T02:34:08;100850.47;;;6.66;72.68
32875;BME280;40468;42.128;24.750;2022-12-29T02:35:47;100845.25;;;6.69;72.45
32875;BME280;40468;42.128;24.750;2022-12-29T02:37:23;100840.91;;;6.71;72.59
32875;BME280;40468;42.128;24.750;2022-12-29T02:39:04;100844.34;;;6.75;72.43
32875;BME280;40468;42.128;24.750;2022-12-29T02:40:41;100816.91;;;6.60;72.39
32875;BME280;40468;42.128;24.750;2022-12-29T02:42:22;100846.00;;;6.79;72.23
32875;BME280;40468;42.128;24.750;2022-12-29T02:44:01;100841.66;;;6.81;72.23
32875;BME280;40468;42.128;24.750;2022-12-29T02:45:41;100838.28;;;6.76;72.12
32875;BME280;40468;42.128;24.750;2022-12-29T02:47:21;100846.84;;;6.79;72.21
32875;BME280;40468;42.128;24.750;2022-12-29T02:48:57;100807.41;;;6.59;72.22
32875;BME280;40468;42.128;24.750;2022-12-29T02:50:34;100839.06;;;6.81;72.11
32875;BME280;40468;42.128;24.750;2022-12-29T02:52:13;100839.06;;;6.81;72.23
32875;BME280;40468;42.128;24.750;2022-12-29T02:53:46;100844.25;;;6.81;72.16
32875;BME280;40468;42.128;24.750;2022-12-29T02:55:36;100833.91;;;6.81;72.06
32875;BME280;40468;42.128;24.750;2022-12-29T02:57:12;100827.91;;;6.76;71.74
32875;BME280;40468;42.128;24.750;2022-12-29T02:58:45;100838.22;;;6.80;72.02
32875;BME280;40468;42.128;24.750;2022-12-29T03:00:17;100835.63;;;6.80;71.70
32875;BME280;40468;42.128;24.750;2022-12-29T03:02:06;100836.50;;;6.81;71.65
32875;BME280;40468;42.128;24.750;2022-12-29T03:03:59;100827.06;;;6.75;71.72
32875;BME280;40468;42.128;24.750;2022-12-29T03:05:50;100834.78;;;6.77;71.69
32875;BME280;40468;42.128;24.750;2022-12-29T03:07:31;100824.53;;;6.71;71.69
32875;BME280;40468;42.128;24.750;2022-12-29T03:09:11;100827.16;;;6.68;71.58
32875;BME280;40468;42.128;24.750;2022-12-29T03:10:50;100837.50;;;6.68;71.93
32875;BME280;40468;42.128;24.750;2022-12-29T03:12:27;100832.38;;;6.65;71.79
32875;BME280;40468;42.128;24.750;2022-12-29T03:14:32;100835.00;;;6.61;71.79
32875;BME280;40468;42.128;24.750;2022-12-29T03:16:34;100832.44;;;6.58;71.89
32875;BME280;40468;42.128;24.750;2022-12-29T03:18:15;100835.97;;;6.54;71.83
32875;BME280;40468;42.128;24.750;2022-12-29T03:19:51;100823.94;;;6.47;71.81
32875;BME280;40468;42.128;24.750;2022-12-29T03:21:33;100732.34;;;5.89;71.94
32875;BME280;40468;42.128;24.750;2022-12-29T03:23:24;100831.78;;;6.41;72.11
32875;BME280;40468;42.128;24.750;2022-12-29T03:25:01;100825.78;;;6.37;72.16
32875;BME280;40468;42.128;24.750;2022-12-29T03:26:35;100820.69;;;6.30;72.23
32875;BME280;40468;42.128;24.750;2022-12-29T03:28:11;100833.59;;;6.33;72.31
32875;BME280;40468;42.128;24.750;2022-12-29T03:29:46;100833.63;;;6.30;72.16
32875;BME280;40468;42.128;24.750;2022-12-29T03:31:23;100825.09;;;6.25;72.35
32875;BME280;40468;42.128;24.750;2022-12-29T03:33:00;100821.69;;;6.18;72.37
32875;BME280;40468;42.128;24.750;2022-12-29T03:34:46;100828.59;;;6.19;72.48
32875;BME280;40468;42.128;24.750;2022-12-29T03:36:27;100826.84;;;6.18;72.42
32875;BME280;40468;42.128;24.750;2022-12-29T03:38:05;100829.47;;;6.17;72.30
32875;BME280;40468;42.128;24.750;2022-12-29T03:39:41;100826.03;;;6.14;72.51
32875;BME280;40468;42.128;24.750;2022-12-29T03:41:14;100831.22;;;6.14;72.25
32875;BME280;40468;42.128;24.750;2022-12-29T03:42:48;100820.09;;;6.09;72.36
32875;BME280;40468;42.128;24.750;2022-12-29T03:44:21;100825.19;;;6.14;72.20
32875;BME280;40468;42.128;24.750;2022-12-29T03:45:53;100826.06;;;6.11;72.14
32875;BME280;40468;42.128;24.750;2022-12-29T03:47:24;100822.63;;;6.12;72.20
32875;BME280;40468;42.128;24.750;2022-12-29T03:48:56;100808.94;;;6.03;72.05
32875;BME280;40468;42.128;24.750;2022-12-29T03:50:30;100820.09;;;6.08;72.16
32875;BME280;40468;42.128;24.750;2022-12-29T03:52:02;100815.88;;;5.99;72.03
32875;BME280;40468;42.128;24.750;2022-12-29T03:53:33;100821.00;;;6.04;72.11
32875;BME280;40468;42.128;24.750;2022-12-29T03:55:05;100675.38;;;5.14;72.06
32875;BME280;40468;42.128;24.750;2022-12-29T03:56:37;100823.63;;;5.99;72.22
32875;BME280;40468;42.128;24.750;2022-12-29T03:58:09;100819.31;;;5.98;72.18
32875;BME280;40468;42.128;24.750;2022-12-29T03:59:41;100812.50;;;5.89;72.08
32875;BME280;40468;42.128;24.750;2022-12-29T04:01:12;100815.94;;;5.95;72.23
32875;BME280;40468;42.128;24.750;2022-12-29T04:02:43;100810.75;;;5.88;72.29
32875;BME280;40468;42.128;24.750;2022-12-29T04:04:15;100818.53;;;5.87;72.26
32875;BME280;40468;42.128;24.750;2022-12-29T04:05:49;100825.38;;;5.91;72.11
32875;BME280;40468;42.128;24.750;2022-12-29T04:07:21;100829.72;;;5.89;72.33
32875;BME280;40468;42.128;24.750;2022-12-29T04:08:52;100830.63;;;5.86;72.17
32875;BME280;40468;42.128;24.750;2022-12-29T04:10:24;100830.63;;;5.82;72.42
32875;BME280;40468;42.128;24.750;2022-12-29T04:11:56;100842.69;;;5.84;72.62
32875;BME280;40468;42.128;24.750;2022-12-29T04:13:27;100833.22;;;5.82;72.43
32875;BME280;40468;42.128;24.750;2022-12-29T04:14:59;100837.56;;;5.80;72.57
32875;BME280;40468;42.128;24.750;2022-12-29T04:16:31;100837.56;;;5.80;72.54
32875;BME280;40468;42.128;24.750;2022-12-29T04:18:05;100829.84;;;5.74;72.52
32875;BME280;40468;42.128;24.750;2022-12-29T04:19:37;100842.78;;;5.75;72.49
32875;BME280;40468;42.128;24.750;2022-12-29T04:21:11;100840.22;;;5.70;72.67
32875;BME280;40468;42.128;24.750;2022-12-29T04:22:42;100843.66;;;5.73;72.82
32875;BME280;40468;42.128;24.750;2022-12-29T04:24:14;100853.13;;;5.72;72.73
32875;BME280;40468;42.128;24.750;2022-12-29T04:25:46;100850.56;;;5.70;72.92
32875;BME280;40468;42.128;24.750;2022-12-29T04:27:17;100842.00;;;5.64;73.09
32875;BME280;40468;42.128;24.750;2022-12-29T04:28:49;100850.56;;;5.67;72.83
32875;BME280;40468;42.128;24.750;2022-12-29T04:30:20;100854.91;;;5.67;73.03
32875;BME280;40468;42.128;24.750;2022-12-29T04:31:52;100854.91;;;5.65;73.11
32875;BME280;40468;42.128;24.750;2022-12-29T04:33:24;100854.13;;;5.57;73.25
32875;BME280;40468;42.128;24.750;2022-12-29T04:34:54;100858.41;;;5.58;73.43
32875;BME280;40468;42.128;24.750;2022-12-29T04:36:28;100867.91;;;5.56;73.48
32875;BME280;40468;42.128;24.750;2022-12-29T04:38:00;100864.50;;;5.51;73.76
32875;BME280;40468;42.128;24.750;2022-12-29T04:39:32;100864.53;;;5.48;73.73
32875;BME280;40468;42.128;24.750;2022-12-29T04:41:04;100855.13;;;5.35;74.02
32875;BME280;40468;42.128;24.750;2022-12-29T04:42:36;100871.47;;;5.40;74.15
32875;BME280;40468;42.128;24.750;2022-12-29T04:44:07;100863.75;;;5.34;74.25
32875;BME280;40468;42.128;24.750;2022-12-29T04:45:42;100873.19;;;5.38;74.26
32875;BME280;40468;42.128;24.750;2022-12-29T04:47:14;100879.22;;;5.35;74.38
32875;BME280;40468;42.128;24.750;2022-12-29T04:48:46;100880.13;;;5.33;74.47
32875;BME280;40468;42.128;24.750;2022-12-29T04:50:18;100870.66;;;5.32;74.47
32875;BME280;40468;42.128;24.750;2022-12-29T04:51:50;100866.38;;;5.28;74.41
32875;BME280;40468;42.128;24.750;2022-12-29T04:53:22;100804.66;;;4.88;74.53
32875;BME280;40468;42.128;24.750;2022-12-29T04:54:53;100875.00;;;5.30;74.49
32875;BME280;40468;42.128;24.750;2022-12-29T04:56:25;100870.69;;;5.25;74.52
32875;BME280;40468;42.128;24.750;2022-12-29T04:57:57;100866.41;;;5.24;74.34
32875;BME280;40468;42.128;24.750;2022-12-29T04:59:28;100872.41;;;5.25;74.36
32875;BME280;40468;42.128;24.750;2022-12-29T05:01:00;100885.31;;;5.30;74.27
32875;BME280;40468;42.128;24.750;2022-12-29T05:02:31;100884.44;;;5.31;74.39
32875;BME280;40468;42.128;24.750;2022-12-29T05:04:03;100886.16;;;5.30;74.24
32875;BME280;40468;42.128;24.750;2022-12-29T05:05:35;100886.19;;;5.27;74.38
32875;BME280;40468;42.128;24.750;2022-12-29T05:07:07;100884.47;;;5.24;74.47
32875;BME280;40468;42.128;24.750;2022-12-29T05:08:39;100878.47;;;5.19;74.65
32875;BME280;40468;42.128;24.750;2022-12-29T05:10:11;100887.09;;;5.18;74.79
32875;BME280;40468;42.128;24.750;2022-12-29T05:11:43;100894.88;;;5.15;74.83
32875;BME280;40468;42.128;24.750;2022-12-29T05:13:14;100888.84;;;5.10;74.78
32875;BME280;40468;42.128;24.750;2022-12-29T05:14:46;100895.72;;;5.14;74.69
32875;BME280;40468;42.128;24.750;2022-12-29T05:16:18;100892.28;;;5.14;74.77
32875;BME280;40468;42.128;24.750;2022-12-29T05:17:49;100886.28;;;5.10;74.63
32875;BME280;40468;42.128;24.750;2022-12-29T05:19:21;100885.41;;;5.08;74.67
32875;BME280;40468;42.128;24.750;2022-12-29T05:20:53;100875.09;;;5.05;74.78
32875;BME280;40468;42.128;24.750;2022-12-29T05:22:26;100894.91;;;5.09;74.79
32875;BME280;40468;42.128;24.750;2022-12-29T05:23:57;100805.66;;;4.62;74.75
32875;BME280;40468;42.128;24.750;2022-12-29T05:25:29;100881.13;;;5.07;74.62
32875;BME280;40468;42.128;24.750;2022-12-29T05:27:01;100883.72;;;5.06;74.72
32875;BME280;40468;42.128;24.750;2022-12-29T05:28:33;100868.25;;;4.99;74.83
32875;BME280;40468;42.128;24.750;2022-12-29T05:30:06;100869.16;;;4.95;74.85
32875;BME280;40468;42.128;24.750;2022-12-29T05:31:38;100879.47;;;4.98;74.99
32875;BME280;40468;42.128;24.750;2022-12-29T05:33:09;100865.72;;;4.92;74.97
32875;BME280;40468;42.128;24.750;2022-12-29T05:34:42;100876.03;;;4.93;75.07
32875;BME280;40468;42.128;24.750;2022-12-29T05:36:14;100875.19;;;4.90;75.17
32875;BME280;40468;42.128;24.750;2022-12-29T05:37:46;100867.50;;;4.85;75.20
32875;BME280;40468;42.128;24.750;2022-12-29T05:39:18;100874.34;;;4.85;75.27
32875;BME280;40468;42.128;24.750;2022-12-29T05:40:50;100878.66;;;4.86;75.20
32875;BME280;40468;42.128;24.750;2022-12-29T05:42:22;100873.50;;;4.86;75.16
32875;BME280;40468;42.128;24.750;2022-12-29T05:43:54;100867.50;;;4.85;75.03
32875;BME280;40468;42.128;24.750;2022-12-29T05:45:25;100866.59;;;4.86;74.99
32875;BME280;40468;42.128;24.750;2022-12-29T05:46:57;100868.34;;;4.86;74.93
32875;BME280;40468;42.128;24.750;2022-12-29T05:48:29;100870.91;;;4.86;74.86
32875;BME280;40468;42.128;24.750;2022-12-29T05:50:01;100860.63;;;4.83;74.80
32875;BME280;40468;42.128;24.750;2022-12-29T05:51:35;100838.28;;;4.72;74.70
32875;BME280;40468;42.128;24.750;2022-12-29T05:53:09;100849.44;;;4.77;74.67
32875;BME280;40468;42.128;24.750;2022-12-29T05:54:40;100862.34;;;4.81;74.61
32875;BME280;40468;42.128;24.750;2022-12-29T05:56:11;100839.19;;;4.62;74.64
32875;BME280;40468;42.128;24.750;2022-12-29T05:57:43;100862.34;;;4.76;74.72
32875;BME280;40468;42.128;24.750;2022-12-29T05:59:14;100859.78;;;4.73;74.74
32875;BME280;40468;42.128;24.750;2022-12-29T06:00:46;100745.72;;;4.02;74.61
32875;BME280;40468;42.128;24.750;2022-12-29T06:02:18;100858.94;;;4.71;74.87
32875;BME280;40468;42.128;24.750;2022-12-29T06:03:50;100740.59;;;3.91;74.75
32875;BME280;40468;42.128;24.750;2022-12-29T06:05:21;100872.72;;;4.68;74.62
32875;BME280;40468;42.128;24.750;2022-12-29T06:06:53;100873.56;;;4.67;74.58
32875;BME280;40468;42.128;24.750;2022-12-29T06:08:26;100869.28;;;4.63;74.59
32875;BME280;40468;42.128;24.750;2022-12-29T06:09:58;100869.28;;;4.60;74.58
32875;BME280;40468;42.128;24.750;2022-12-29T06:11:30;100873.56;;;4.64;74.60
32875;BME280;40468;42.128;24.750;2022-12-29T06:13:01;100874.44;;;4.65;74.72
32875;BME280;40468;42.128;24.750;2022-12-29T06:14:34;100877.88;;;4.65;74.61
32875;BME280;40468;42.128;24.750;2022-12-29T06:16:06;100873.56;;;4.66;74.54
32875;BME280;40468;42.128;24.750;2022-12-29T06:17:38;100865.84;;;4.66;74.65
32875;BME280;40468;42.128;24.750;2022-12-29T06:19:11;100860.66;;;4.67;74.62
32875;BME280;40468;42.128;24.750;2022-12-29T06:20:42;100859.78;;;4.71;74.69
32875;BME280;40468;42.128;24.750;2022-12-29T06:22:14;100800.59;;;4.36;74.68
32875;BME280;40468;42.128;24.750;2022-12-29T06:23:48;100861.47;;;4.80;74.68
32875;BME280;40468;42.128;24.750;2022-12-29T06:25:19;100878.66;;;4.89;74.46
32875;BME280;40468;42.128;24.750;2022-12-29T06:26:51;100873.47;;;4.95;74.54
32875;BME280;40468;42.128;24.750;2022-12-29T06:28:23;100881.13;;;5.02;74.41
32875;BME280;40468;42.128;24.750;2022-12-29T06:29:55;100868.25;;;5.04;74.21
32875;BME280;40468;42.128;24.750;2022-12-29T06:31:27;100884.53;;;5.15;74.07
32875;BME280;40468;42.128;24.750;2022-12-29T06:32:59;100884.50;;;5.21;73.72
32875;BME280;40468;42.128;24.750;2022-12-29T06:34:30;100885.34;;;5.22;73.71
32875;BME280;40468;42.128;24.750;2022-12-29T06:36:02;100877.56;;;5.28;73.58
32875;BME280;40468;42.128;24.750;2022-12-29T06:37:34;100881.81;;;5.37;73.30
32875;BME280;40468;42.128;24.750;2022-12-29T06:39:07;100890.34;;;5.50;73.47
32875;BME280;40468;42.128;24.750;2022-12-29T06:40:39;100897.16;;;5.58;73.36
32875;BME280;40468;42.128;24.750;2022-12-29T06:42:13;100895.41;;;5.68;73.26
32875;BME280;40468;42.128;24.750;2022-12-29T06:43:44;100897.91;;;5.77;73.33
32875;BME280;40468;42.128;24.750;2022-12-29T06:45:16;100900.44;;;5.82;73.00
32875;BME280;40468;42.128;24.750;2022-12-29T06:46:47;100874.66;;;5.73;72.92
32875;BME280;40468;42.128;24.750;2022-12-29T06:48:19;100887.47;;;5.88;72.80
32875;BME280;40468;42.128;24.750;2022-12-29T06:49:50;100908.06;;;6.02;72.81
32875;BME280;40468;42.128;24.750;2022-12-29T06:51:22;100910.59;;;6.09;72.65
32875;BME280;40468;42.128;24.750;2022-12-29T06:52:54;100910.50;;;6.19;72.56
32875;BME280;40468;42.128;24.750;2022-12-29T06:54:27;100911.28;;;6.28;72.54
32875;BME280;40468;42.128;24.750;2022-12-29T06:55:59;100902.56;;;6.37;72.11
32875;BME280;40468;42.128;24.750;2022-12-29T06:57:31;100914.53;;;6.46;71.96
32875;BME280;40468;42.128;24.750;2022-12-29T06:59:03;100904.16;;;6.49;71.86
32875;BME280;40468;42.128;24.750;2022-12-29T07:00:35;100910.09;;;6.58;71.63
32875;BME280;40468;42.128;24.750;2022-12-29T07:02:09;100892.00;;;6.55;71.22
32875;BME280;40468;42.128;24.750;2022-12-29T07:03:41;100911.66;;;6.73;70.96
32875;BME280;40468;42.128;24.750;2022-12-29T07:05:13;100920.16;;;6.83;70.70
32875;BME280;40468;42.128;24.750;2022-12-29T07:06:45;100922.69;;;6.89;70.81
32875;BME280;40468;42.128;24.750;2022-12-29T07:08:17;100917.38;;;7.00;70.87
32875;BME280;40468;42.128;24.750;2022-12-29T07:09:49;100916.44;;;7.07;70.48
32875;BME280;40468;42.128;24.750;2022-12-29T07:11:21;100920.59;;;7.19;70.15
32875;BME280;40468;42.128;24.750;2022-12-29T07:12:53;100923.06;;;7.28;70.14
32875;BME280;40468;42.128;24.750;2022-12-29T07:14:25;100927.25;;;7.35;69.77
32875;BME280;40468;42.128;24.750;2022-12-29T07:15:57;100923.69;;;7.44;69.73
32875;BME280;40468;42.128;24.750;2022-12-29T07:17:29;100929.59;;;7.53;69.44
32875;BME280;40468;42.128;24.750;2022-12-29T07:19:01;100918.22;;;7.62;69.32
32875;BME280;40468;42.128;24.750;2022-12-29T07:20:33;100926.56;;;7.84;69.04
32875;BME280;40468;42.128;24.750;2022-12-29T07:22:04;100927.09;;;8.05;68.42
32875;BME280;40468;42.128;24.750;2022-12-29T07:23:36;100921.53;;;8.25;68.03
32875;BME280;40468;42.128;24.750;2022-12-29T07:25:10;100913.34;;;8.49;67.53
32875;BME280;40468;42.128;24.750;2022-12-29T07:26:41;100924.84;;;8.81;66.73
32875;BME280;40468;42.128;24.750;2022-12-29T07:28:13;100916.50;;;9.07;66.07
32875;BME280;40468;42.128;24.750;2022-12-29T07:29:45;100910.75;;;9.33;65.11
32875;BME280;40468;42.128;24.750;2022-12-29T07:31:19;100918.06;;;9.54;63.44
32875;BME280;40468;42.128;24.750;2022-12-29T07:32:51;100892.25;;;9.47;62.40
32875;BME280;40468;42.128;24.750;2022-12-29T07:34:23;100909.91;;;9.70;62.63
32875;BME280;40468;42.128;24.750;2022-12-29T07:35:55;100916.13;;;10.00;61.90
32875;BME280;40468;42.128;24.750;2022-12-29T07:37:27;100912.47;;;10.07;60.59
32875;BME280;40468;42.128;24.750;2022-12-29T07:38:59;100908.78;;;10.14;60.09
32875;BME280;40468;42.128;24.750;2022-12-29T07:40:32;100910.47;;;10.17;59.66
32875;BME280;40468;42.128;24.750;2022-12-29T07:42:04;100915.38;;;10.31;59.45
32875;BME280;40468;42.128;24.750;2022-12-29T07:43:35;100908.91;;;10.44;59.19
32875;BME280;40468;42.128;24.750;2022-12-29T07:45:08;100920.53;;;10.65;58.78
32875;BME280;40468;42.128;24.750;2022-12-29T07:46:40;100910.69;;;10.75;57.97
32875;BME280;40468;42.128;24.750;2022-12-29T07:48:12;100903.63;;;10.80;57.68
32875;BME280;40468;42.128;24.750;2022-12-29T07:49:44;100909.53;;;10.85;57.60
32875;BME280;40468;42.128;24.750;2022-12-29T07:51:16;100911.03;;;10.93;57.81
32875;BME280;40468;42.128;24.750;2022-12-29T07:52:48;100904.56;;;11.07;57.38
32875;BME280;40468;42.128;24.750;2022-12-29T07:54:20;100908.50;;;11.20;57.27
32875;BME280;40468;42.128;24.750;2022-12-29T07:55:54;100911.34;;;11.41;56.86
32875;BME280;40468;42.128;24.750;2022-12-29T07:57:26;100906.59;;;11.53;56.59
32875;BME280;40468;42.128;24.750;2022-12-29T07:58:57;100906.16;;;11.69;56.24
32875;BME280;40468;42.128;24.750;2022-12-29T08:00:29;100914.16;;;11.91;55.61
32875;BME280;40468;42.128;24.750;2022-12-29T08:02:01;100901.81;;;11.96;55.02
32875;BME280;40468;42.128;24.750;2022-12-29T08:03:33;100918.09;;;12.29;54.95
32875;BME280;40468;42.128;24.750;2022-12-29T08:05:07;100915.19;;;12.62;54.50
32875;BME280;40468;42.128;24.750;2022-12-29T08:06:39;100890.22;;;12.78;54.21
32875;BME280;40468;42.128;24.750;2022-12-29T08:08:10;100912.44;;;13.13;53.43
32875;BME280;40468;42.128;24.750;2022-12-29T08:09:42;100916.38;;;13.25;52.31
32875;BME280;40468;42.128;24.750;2022-12-29T08:11:15;100912.00;;;13.26;51.96
32875;BME280;40468;42.128;24.750;2022-12-29T08:12:47;100917.34;;;13.21;51.51
32875;BME280;40468;42.128;24.750;2022-12-29T08:14:19;100907.81;;;13.20;51.66
32875;BME280;40468;42.128;24.750;2022-12-29T08:15:51;100922.22;;;13.32;51.32
32875;BME280;40468;42.128;24.750;2022-12-29T08:17:23;100919.41;;;13.36;51.44
32875;BME280;40468;42.128;24.750;2022-12-29T08:18:55;100921.44;;;13.52;51.32